createdAt,value
2018-08-30T00:02:16.669Z,98844.06
2018-08-30T00:04:45.137Z,98843.40
2018-08-30T00:07:13.606Z,98841.36
2018-08-30T00:09:42.239Z,98842.22
2018-08-30T00:12:10.678Z,98847.63
2018-08-30T00:14:39.810Z,98846.79
2018-08-30T00:17:08.265Z,98845.11
2018-08-30T00:19:36.765Z,98849.16
2018-08-30T00:22:05.217Z,98843.42
2018-08-30T00:24:33.645Z,98849.85
2018-08-30T00:27:02.106Z,98843.78
2018-08-30T00:29:30.601Z,98836.66
2018-08-30T00:31:59.047Z,98845.11
2018-08-30T00:34:27.574Z,98836.67
2018-08-30T00:36:56.022Z,98839.70
2018-08-30T00:39:24.498Z,98849.50
2018-08-30T00:41:53.098Z,98850.70
2018-08-30T00:44:21.602Z,98843.76
2018-08-30T00:46:49.985Z,98847.12
2018-08-30T00:49:18.436Z,98853.04
2018-08-30T00:51:46.949Z,98848.48
2018-08-30T00:54:15.402Z,98852.34
2018-08-30T00:56:43.791Z,98854.57
2018-08-30T00:59:12.242Z,98849.14
2018-08-30T01:01:40.690Z,98856.91
2018-08-30T01:04:09.105Z,98851.52
2018-08-30T01:06:38.705Z,98851.45
2018-08-30T01:09:07.785Z,98854.48
2018-08-30T01:11:36.529Z,98859.56
2018-08-30T01:14:04.997Z,98863.08
2018-08-30T01:16:33.814Z,98864.78
2018-08-30T01:19:02.249Z,98873.77
2018-08-30T01:21:30.737Z,98873.26
2018-08-30T01:23:59.267Z,98867.52
2018-08-30T01:26:27.722Z,98869.89
2018-08-30T01:28:56.197Z,98874.94
2018-08-30T01:31:24.695Z,98875.75
2018-08-30T01:33:53.356Z,98873.19
2018-08-30T01:36:21.833Z,98868.98
2018-08-30T01:38:50.357Z,98876.41
2018-08-30T01:41:18.785Z,98877.39
2018-08-30T01:43:47.282Z,98880.60
2018-08-30T01:46:15.697Z,98888.53
2018-08-30T01:48:44.130Z,98873.48
2018-08-30T01:51:12.657Z,98875.63
2018-08-30T01:53:41.070Z,98879.31
2018-08-30T01:56:09.609Z,98869.34
2018-08-30T01:58:38.621Z,98872.52
2018-08-30T02:01:07.061Z,98873.87
2018-08-30T02:03:35.433Z,98872.19
2018-08-30T02:06:03.913Z,98875.41
2018-08-30T02:08:32.397Z,98872.02
2018-08-30T02:11:00.849Z,98883.50
2018-08-30T02:13:29.431Z,98880.11
2018-08-30T02:15:57.946Z,98886.02
2018-08-30T02:18:26.445Z,98889.02
2018-08-30T02:20:55.192Z,98883.23
2018-08-30T02:23:23.699Z,98882.72
2018-08-30T02:25:52.261Z,98883.73
2018-08-30T02:28:20.665Z,98884.58
2018-08-30T02:30:49.049Z,98882.72
2018-08-30T02:33:17.545Z,98887.60
2018-08-30T02:35:46.062Z,98892.12
2018-08-30T02:38:14.605Z,98889.61
2018-08-30T02:40:43.137Z,98890.63
2018-08-30T02:43:11.590Z,98898.41
2018-08-30T02:45:40.837Z,98893.66
2018-08-30T02:48:09.345Z,98898.08
2018-08-30T02:50:39.202Z,98892.87
2018-08-30T02:53:07.929Z,98896.08
2018-08-30T02:55:36.322Z,98900.98
2018-08-30T02:58:04.846Z,98891.23
2018-08-30T03:00:33.258Z,98900.69
2018-08-30T03:03:01.897Z,98899.67
2018-08-30T03:05:30.318Z,98902.19
2018-08-30T03:08:01.378Z,98905.54
2018-08-30T03:10:29.884Z,98902.00
2018-08-30T03:12:58.354Z,98896.55
2018-08-30T03:15:26.886Z,98907.86
2018-08-30T03:17:55.432Z,98905.16
2018-08-30T03:20:23.926Z,98900.73
2018-08-30T03:22:52.409Z,98906.38
2018-08-30T03:25:20.882Z,98907.35
2018-08-30T03:27:49.337Z,98902.63
2018-08-30T03:30:17.879Z,98904.27
2018-08-30T03:32:46.322Z,98904.13
2018-08-30T03:35:14.846Z,98903.80
2018-08-30T03:37:43.294Z,98905.14
2018-08-30T03:40:11.763Z,98911.53
2018-08-30T03:42:40.549Z,98913.34
2018-08-30T03:45:09.053Z,98915.20
2018-08-30T03:47:38.645Z,98914.67
2018-08-30T03:50:07.194Z,98911.27
2018-08-30T03:52:35.759Z,98913.45
2018-08-30T03:55:04.693Z,98914.29
2018-08-30T03:57:33.144Z,98911.91
2018-08-30T04:00:01.694Z,98914.61
2018-08-30T04:02:30.130Z,98918.98
2018-08-30T04:04:58.642Z,98916.23
2018-08-30T04:07:27.091Z,98916.23
2018-08-30T04:09:55.989Z,98924.50
2018-08-30T04:12:24.446Z,98925.69
2018-08-30T04:14:53.005Z,98925.69
2018-08-30T04:17:21.418Z,98931.08
2018-08-30T04:19:49.918Z,98935.11
2018-08-30T04:22:18.390Z,98932.02
2018-08-30T04:24:46.942Z,98937.44
2018-08-30T04:27:15.348Z,98944.86
2018-08-30T04:29:43.849Z,98940.43
2018-08-30T04:32:12.316Z,98938.89
2018-08-30T04:34:40.901Z,98942.56
2018-08-30T04:37:09.382Z,98943.07
2018-08-30T04:39:37.997Z,98945.52
2018-08-30T04:42:06.546Z,98950.07
2018-08-30T04:44:34.986Z,98948.02
2018-08-30T04:47:03.452Z,98946.98
2018-08-30T04:49:31.918Z,98953.73
2018-08-30T04:52:00.363Z,98957.77
2018-08-30T04:54:28.841Z,98961.81
2018-08-30T04:56:57.396Z,98962.83
2018-08-30T04:59:25.825Z,98959.13
2018-08-30T05:01:54.443Z,98966.88
2018-08-30T05:04:22.918Z,98964.48
2018-08-30T05:06:51.396Z,98975.08
2018-08-30T05:09:19.880Z,98984.12
2018-08-30T05:11:48.355Z,98973.78
2018-08-30T05:14:16.801Z,98982.84
2018-08-30T05:16:45.302Z,98991.75
2018-08-30T05:19:13.773Z,98991.05
2018-08-30T05:21:42.274Z,98995.80
2018-08-30T05:24:10.725Z,98993.20
2018-08-30T05:26:40.592Z,99000.78
2018-08-30T05:29:09.014Z,99000.25
2018-08-30T05:31:37.534Z,98997.05
2018-08-30T05:34:06.257Z,98993.50
2018-08-30T05:36:34.705Z,99002.06
2018-08-30T05:39:03.166Z,99013.36
2018-08-30T05:41:31.649Z,99017.40
2018-08-30T05:44:00.124Z,99011.03
2018-08-30T05:46:28.687Z,99017.06
2018-08-30T05:48:57.178Z,99019.16
2018-08-30T05:51:25.692Z,99018.17
2018-08-30T05:53:54.149Z,99018.91
2018-08-30T05:56:22.629Z,99020.67
2018-08-30T05:58:51.101Z,99016.72
2018-08-30T06:01:19.545Z,99012.96
2018-08-30T06:03:47.994Z,99018.11
2018-08-30T06:06:16.470Z,99020.42
2018-08-30T06:08:44.952Z,99018.12
2018-08-30T06:11:13.406Z,99026.89
2018-08-30T06:13:41.917Z,99027.28
2018-08-30T06:16:10.386Z,99025.66
2018-08-30T06:18:39.849Z,99026.77
2018-08-30T06:21:08.281Z,99030.73
2018-08-30T06:23:36.984Z,99025.66
2018-08-30T06:26:05.686Z,99027.53
2018-08-30T06:28:34.129Z,99032.03
2018-08-30T06:31:02.594Z,99037.91
2018-08-30T06:33:31.091Z,99030.00
2018-08-30T06:35:59.562Z,99035.70
2018-08-30T06:38:28.114Z,99044.14
2018-08-30T06:40:56.730Z,99047.99
2018-08-30T06:43:25.128Z,99037.64
2018-08-30T06:45:53.809Z,99050.03
2018-08-30T06:48:22.292Z,99050.03
2018-08-30T06:50:50.741Z,99056.80
2018-08-30T06:53:19.245Z,99055.11
2018-08-30T06:55:47.778Z,99052.47
2018-08-30T06:58:16.235Z,99057.05
2018-08-30T07:00:44.758Z,99056.06
2018-08-30T07:03:13.162Z,99057.09
2018-08-30T07:05:41.671Z,99057.17
2018-08-30T07:08:10.196Z,99062.16
2018-08-30T07:10:38.930Z,99060.81
2018-08-30T07:13:07.401Z,99069.90
2018-08-30T07:15:35.862Z,99065.20
2018-08-30T07:18:04.406Z,99068.86
2018-08-30T07:20:32.890Z,99071.91
2018-08-30T07:23:01.666Z,99071.42
2018-08-30T07:25:30.154Z,99071.83
2018-08-30T07:27:58.576Z,99077.76
2018-08-30T07:30:27.114Z,99076.31
2018-08-30T07:32:55.717Z,99079.28
2018-08-30T07:35:24.274Z,99087.18
2018-08-30T07:37:52.715Z,99081.44
2018-08-30T07:40:21.229Z,99081.35
2018-08-30T07:42:49.705Z,99081.25
2018-08-30T07:45:18.215Z,99083.78
2018-08-30T07:47:46.679Z,99082.05
2018-08-30T07:50:15.200Z,99082.56
2018-08-30T07:52:43.612Z,99084.59
2018-08-30T07:55:12.185Z,99089.11
2018-08-30T07:57:41.669Z,99087.42
2018-08-30T08:00:10.226Z,99089.51
2018-08-30T08:02:38.849Z,99087.22
2018-08-30T08:05:07.313Z,99091.22
2018-08-30T08:07:35.782Z,99089.69
2018-08-30T08:10:04.294Z,99098.14
2018-08-30T08:12:32.762Z,99103.11
2018-08-30T08:15:01.182Z,99100.79
2018-08-30T08:17:29.586Z,99105.69
2018-08-30T08:19:58.050Z,99101.66
2018-08-30T08:22:26.461Z,99107.92
2018-08-30T08:24:55.029Z,99113.63
2018-08-30T08:27:23.490Z,99106.26
2018-08-30T08:29:52.032Z,99111.46
2018-08-30T08:32:20.438Z,99104.38
2018-08-30T08:34:48.930Z,99106.07
2018-08-30T08:37:17.396Z,99112.34
2018-08-30T08:39:45.931Z,99109.80
2018-08-30T08:42:14.358Z,99095.25
2018-08-30T08:44:42.920Z,99089.16
2018-08-30T08:47:11.378Z,99091.55
2018-08-30T08:49:40.742Z,99089.84
2018-08-30T08:52:09.197Z,99093.91
2018-08-30T08:54:37.994Z,99093.56
2018-08-30T08:57:06.530Z,99091.69
2018-08-30T08:59:34.962Z,99092.91
2018-08-30T09:02:03.445Z,99090.11
2018-08-30T09:04:32.517Z,99086.40
2018-08-30T09:07:01.019Z,99089.17
2018-08-30T09:09:29.458Z,99079.51
2018-08-30T09:11:57.959Z,99085.27
2018-08-30T09:14:26.441Z,99084.88
2018-08-30T09:16:54.897Z,99086.25
2018-08-30T09:19:23.350Z,99088.61
2018-08-30T09:21:51.898Z,99093.92
2018-08-30T09:24:20.383Z,99095.02
2018-08-30T09:26:48.960Z,99093.24
2018-08-30T09:29:17.364Z,99093.45
2018-08-30T09:31:45.770Z,99086.73
2018-08-30T09:34:14.266Z,99093.30
2018-08-30T09:36:42.713Z,99093.29
2018-08-30T09:39:11.256Z,99092.06
2018-08-30T09:41:40.474Z,99088.41
2018-08-30T09:44:09.029Z,99092.57
2018-08-30T09:46:37.620Z,99086.73
2018-08-30T09:49:06.649Z,99090.33
2018-08-30T09:51:35.344Z,99082.19
2018-08-30T09:54:03.866Z,99087.09
2018-08-30T09:56:32.329Z,99073.88
2018-08-30T09:59:00.848Z,99082.29
2018-08-30T10:01:34.547Z,99072.30
2018-08-30T10:04:02.989Z,99077.98
2018-08-30T10:06:31.461Z,99070.80
2018-08-30T10:09:00.311Z,99074.62
2018-08-30T10:11:28.746Z,99072.02
2018-08-30T10:13:57.141Z,99063.84
2018-08-30T10:16:25.597Z,99066.22
2018-08-30T10:18:54.441Z,99065.84
2018-08-30T10:21:22.895Z,99064.32
2018-08-30T10:23:51.345Z,99068.02
2018-08-30T10:26:19.834Z,99058.91
2018-08-30T10:28:48.273Z,99061.91
2018-08-30T10:31:16.777Z,99064.93
2018-08-30T10:33:45.377Z,99063.92
2018-08-30T10:36:13.870Z,99060.84
2018-08-30T10:38:42.301Z,99066.46
2018-08-30T10:41:10.861Z,99054.50
2018-08-30T10:43:39.777Z,99053.31
2018-08-30T10:46:08.349Z,99053.42
2018-08-30T10:48:36.828Z,99055.30
2018-08-30T10:51:05.293Z,99053.17
2018-08-30T10:53:33.794Z,99058.77
2018-08-30T10:56:02.926Z,99054.19
2018-08-30T10:58:31.483Z,99050.50
2018-08-30T11:00:59.890Z,99054.08
2018-08-30T11:03:28.493Z,99059.08
2018-08-30T11:05:57.038Z,99059.54
2018-08-30T11:08:25.499Z,99050.50
2018-08-30T11:10:54.078Z,99045.94
2018-08-30T11:13:22.656Z,99039.53
2018-08-30T11:15:51.125Z,99043.33
2018-08-30T11:18:19.561Z,99044.44
2018-08-30T11:20:48.061Z,99046.30
2018-08-30T11:23:16.749Z,99040.13
2018-08-30T11:25:45.394Z,99046.56
2018-08-30T11:28:14.038Z,99042.18
2018-08-30T11:30:42.695Z,99039.44
2018-08-30T11:33:11.193Z,99044.80
2018-08-30T11:35:40.037Z,99040.61
2018-08-30T11:38:08.509Z,99041.44
2018-08-30T11:40:36.966Z,99031.28
2018-08-30T11:43:05.435Z,99033.95
2018-08-30T11:45:33.894Z,99040.76
2018-08-30T11:48:02.418Z,99037.44
2018-08-30T11:50:30.878Z,99038.91
2018-08-30T11:52:59.309Z,99033.98
2018-08-30T11:55:27.875Z,99040.63
2018-08-30T11:57:56.386Z,99036.67
2018-08-30T12:00:24.861Z,99039.29
2018-08-30T12:02:53.527Z,99041.94
2018-08-30T12:05:22.068Z,99031.95
2018-08-30T12:07:50.631Z,99033.00
2018-08-30T12:10:19.102Z,99031.92
2018-08-30T12:12:47.593Z,99033.59
2018-08-30T12:15:16.129Z,99034.88
2018-08-30T12:17:44.498Z,99032.32
2018-08-30T12:20:13.001Z,99026.94
2018-08-30T12:22:41.502Z,99038.52
2018-08-30T12:25:10.025Z,99026.30
2018-08-30T12:27:38.773Z,99023.81
2018-08-30T12:30:07.411Z,99018.46
2018-08-30T12:32:35.892Z,99021.80
2018-08-30T12:35:04.637Z,99027.25
2018-08-30T12:37:32.921Z,99024.34
2018-08-30T12:40:01.545Z,99018.25
2018-08-30T12:42:29.999Z,99012.09
2018-08-30T12:44:58.534Z,99006.83
2018-08-30T12:47:27.020Z,99005.97
2018-08-30T12:49:55.584Z,98999.01
2018-08-30T12:52:24.201Z,99005.52
2018-08-30T12:54:52.785Z,99000.25
2018-08-30T12:57:21.192Z,98998.47
2018-08-30T12:59:49.719Z,98992.94
2018-08-30T13:02:18.157Z,98989.64
2018-08-30T13:04:46.996Z,98994.55
2018-08-30T13:07:15.461Z,98982.11
2018-08-30T13:09:43.994Z,98988.28
2018-08-30T13:12:12.692Z,98985.71
2018-08-30T13:14:41.311Z,98990.61
2018-08-30T13:17:09.744Z,98989.91
2018-08-30T13:19:38.620Z,98986.02
2018-08-30T13:22:06.954Z,98983.31
2018-08-30T13:24:35.522Z,98978.02
2018-08-30T13:27:03.932Z,98973.80
2018-08-30T13:29:32.406Z,98976.16
2018-08-30T13:32:00.812Z,98975.03
2018-08-30T13:34:29.493Z,98972.53
2018-08-30T13:36:58.015Z,98963.36
2018-08-30T13:39:26.740Z,98966.78
2018-08-30T13:41:55.377Z,98965.05
2018-08-30T13:44:23.852Z,98958.16
2018-08-30T13:46:52.253Z,98956.21
2018-08-30T13:49:20.671Z,98956.20
2018-08-30T13:51:49.242Z,98948.52
2018-08-30T13:54:17.930Z,98952.61
2018-08-30T13:56:46.333Z,98942.55
2018-08-30T13:59:14.844Z,98936.45
2018-08-30T14:01:43.309Z,98934.56
2018-08-30T14:04:11.650Z,98938.97
2018-08-30T14:06:40.845Z,98928.22
2018-08-30T14:09:09.353Z,98927.41
2018-08-30T14:11:37.853Z,98926.14
2018-08-30T14:14:06.177Z,98930.85
2018-08-30T14:16:34.364Z,98924.63
2018-08-30T14:19:03.055Z,98928.11
2018-08-30T14:21:31.521Z,98921.16
2018-08-30T14:23:59.978Z,98920.83
2018-08-30T14:26:28.481Z,98922.73
2018-08-30T14:28:57.045Z,98928.63
2018-08-30T14:31:25.542Z,98925.45
2018-08-30T14:33:54.080Z,98914.78
2018-08-30T14:36:22.493Z,98917.19
2018-08-30T14:38:51.187Z,98914.00
2018-08-30T14:41:19.534Z,98909.53
2018-08-30T14:43:47.965Z,98911.18
2018-08-30T14:46:16.486Z,98908.98
2018-08-30T14:48:45.204Z,98911.21
2018-08-30T14:51:13.882Z,98913.88
2018-08-30T14:53:42.410Z,98915.24
2018-08-30T14:56:11.217Z,98906.44
2018-08-30T14:58:40.226Z,98910.30
2018-08-30T15:01:08.786Z,98907.55
2018-08-30T15:03:37.207Z,98915.26
2018-08-30T15:06:06.025Z,98915.55
2018-08-30T15:08:34.382Z,98919.16
2018-08-30T15:11:03.004Z,98913.98
2018-08-30T15:13:31.542Z,98916.19
2018-08-30T15:16:00.108Z,98917.91
2018-08-30T15:18:28.724Z,98912.05
2018-08-30T15:20:57.209Z,98920.56
2018-08-30T15:23:26.097Z,98918.14
2018-08-30T15:25:54.410Z,98931.76
2018-08-30T15:28:22.961Z,98917.09
2018-08-30T15:30:51.445Z,98916.05
2018-08-30T15:33:20.421Z,98918.28
2018-08-30T15:35:48.906Z,98913.77
2018-08-30T15:38:18.137Z,98915.00
2018-08-30T15:40:47.393Z,98918.50
2018-08-30T15:43:16.146Z,98915.74
2018-08-30T15:45:59.827Z,98910.87
2018-08-30T15:48:28.546Z,98908.55
2018-08-30T15:50:57.205Z,98911.73
2018-08-30T15:53:25.986Z,98908.84
2018-08-30T15:55:54.277Z,98911.05
2018-08-30T15:58:22.938Z,98910.59
2018-08-30T16:00:51.331Z,98907.56
2018-08-30T16:03:19.844Z,98908.63
2018-08-30T16:05:48.462Z,98914.27
2018-08-30T16:08:16.902Z,98913.30
2018-08-30T16:10:45.659Z,98917.84
2018-08-30T16:13:14.323Z,98917.41
2018-08-30T16:15:42.873Z,98922.38
2018-08-30T16:18:11.359Z,98922.56
2018-08-30T16:20:40.365Z,98918.44
2018-08-30T16:23:36.481Z,98918.61
2018-08-30T16:26:05.105Z,98917.03
2018-08-30T16:28:34.446Z,98918.52
2018-08-30T16:31:02.999Z,98919.33
2018-08-30T16:33:31.415Z,98916.38
2018-08-30T16:36:00.256Z,98917.95
2018-08-30T16:38:28.889Z,98916.39
2018-08-30T16:40:57.345Z,98915.96
2018-08-30T16:43:26.046Z,98910.08
2018-08-30T16:45:54.545Z,98907.66
2018-08-30T16:48:23.221Z,98912.56
2018-08-30T16:50:51.660Z,98911.23
2018-08-30T16:53:20.338Z,98912.70
2018-08-30T16:55:48.774Z,98904.58
2018-08-30T16:58:17.413Z,98906.35
2018-08-30T17:00:45.895Z,98904.55
2018-08-30T17:03:14.486Z,98904.90
2018-08-30T17:05:43.003Z,98895.63
2018-08-30T17:08:11.615Z,98894.56
2018-08-30T17:10:40.402Z,98892.89
2018-08-30T17:13:08.858Z,98888.03
2018-08-30T17:15:37.469Z,98889.36
2018-08-30T17:18:06.133Z,98886.33
2018-08-30T17:20:39.686Z,98888.88
2018-08-30T17:23:08.302Z,98893.84
2018-08-30T17:25:36.685Z,98892.75
2018-08-30T17:28:05.461Z,98892.90
2018-08-30T17:30:33.938Z,98892.55
2018-08-30T17:33:02.499Z,98886.66
2018-08-30T17:35:31.006Z,98877.38
2018-08-30T17:37:59.763Z,98882.25
2018-08-30T17:40:28.282Z,98880.98
2018-08-30T17:42:57.018Z,98886.82
2018-08-30T17:45:25.600Z,98882.48
2018-08-30T17:47:54.066Z,98879.39
2018-08-30T17:50:22.727Z,98876.55
2018-08-30T17:52:51.233Z,98877.00
2018-08-30T17:55:20.050Z,98889.28
2018-08-30T17:57:48.489Z,98880.37
2018-08-30T18:00:17.157Z,98885.58
2018-08-30T18:02:46.646Z,98883.45
2018-08-30T18:05:15.965Z,98889.73
2018-08-30T18:07:44.838Z,98895.37
2018-08-30T18:10:13.469Z,98896.30
2018-08-30T18:12:41.925Z,98901.20
2018-08-30T18:15:13.074Z,98897.15
2018-08-30T18:17:41.738Z,98891.77
2018-08-30T18:20:10.358Z,98896.55
2018-08-30T18:22:39.763Z,98896.92
2018-08-30T18:25:08.699Z,98888.11
2018-08-30T18:27:37.573Z,98889.47
2018-08-30T18:30:07.669Z,98891.15
2018-08-30T18:32:36.201Z,98897.25
2018-08-30T18:35:05.194Z,98903.67
2018-08-30T18:37:33.609Z,98903.67
2018-08-30T18:40:02.033Z,98905.06
2018-08-30T18:42:30.589Z,98910.84
2018-08-30T18:44:59.061Z,98910.36
2018-08-30T18:47:27.605Z,98912.91
2018-08-30T18:49:56.492Z,98920.88
2018-08-30T18:52:24.885Z,98923.45
2018-08-30T18:54:53.658Z,98919.92
2018-08-30T18:57:22.117Z,98919.23
2018-08-30T18:59:50.762Z,98922.47
2018-08-30T19:02:19.298Z,98924.33
2018-08-30T19:04:47.824Z,98921.14
2018-08-30T19:07:16.282Z,98922.80
2018-08-30T19:09:44.882Z,98922.48
2018-08-30T19:12:13.337Z,98928.41
2018-08-30T19:14:41.854Z,98937.22
2018-08-30T19:17:16.169Z,98941.79
2018-08-30T19:19:44.845Z,98938.25
2018-08-30T19:22:13.357Z,98943.16
2018-08-30T19:25:45.898Z,98946.21
2018-08-30T19:28:14.337Z,98941.46
2018-08-30T19:30:42.982Z,98941.10
2018-08-30T19:33:11.471Z,98943.83
2018-08-30T19:35:45.161Z,98944.52
2018-08-30T19:38:14.653Z,98941.30
2018-08-30T19:40:48.238Z,98939.76
2018-08-30T19:43:16.629Z,98943.48
2018-08-30T19:45:45.205Z,98939.09
2018-08-30T19:48:13.609Z,98934.19
2018-08-30T19:50:42.482Z,98938.58
2018-08-30T19:53:10.874Z,98931.66
2018-08-30T19:55:39.956Z,98932.14
2018-08-30T19:58:08.362Z,98928.23
2018-08-30T20:00:37.046Z,98934.86
2018-08-30T20:03:05.665Z,98931.64
2018-08-30T20:05:34.141Z,98936.73
2018-08-30T20:08:02.690Z,98938.08
2018-08-30T20:10:31.197Z,98942.09
2018-08-30T20:12:59.776Z,98936.02
2018-08-30T20:15:28.194Z,98935.83
2018-08-30T20:17:56.717Z,98932.45
2018-08-30T20:20:25.626Z,98935.81
2018-08-30T20:22:54.469Z,98925.17
2018-08-30T20:25:23.086Z,98932.11
2018-08-30T20:27:51.917Z,98927.52
2018-08-30T20:30:20.366Z,98924.66
2018-08-30T20:32:48.872Z,98928.20
2018-08-30T20:35:17.607Z,98921.41
2018-08-30T20:37:46.046Z,98917.69
2018-08-30T20:40:14.554Z,98915.65
2018-08-30T20:42:43.197Z,98919.05
2018-08-30T20:45:11.722Z,98914.28
2018-08-30T20:47:41.286Z,98911.56
2018-08-30T20:50:09.826Z,98914.08
2018-08-30T20:52:38.399Z,98917.60
2018-08-30T20:55:06.958Z,98919.66
2018-08-30T20:57:35.565Z,98915.56
2018-08-30T21:00:04.206Z,98919.95
2018-08-30T21:02:32.748Z,98920.80
2018-08-30T21:05:01.176Z,98912.17
2018-08-30T21:07:29.774Z,98911.84
2018-08-30T21:09:58.284Z,98894.62
2018-08-30T21:12:26.693Z,98901.35
2018-08-30T21:14:55.414Z,98909.66
2018-08-30T21:17:24.100Z,98908.78
2018-08-30T21:19:52.593Z,98900.03
2018-08-30T21:22:21.074Z,98900.89
2018-08-30T21:24:49.529Z,98895.81
2018-08-30T21:27:18.030Z,98897.32
2018-08-30T21:29:46.417Z,98896.63
2018-08-30T21:32:14.942Z,98894.59
2018-08-30T21:34:43.498Z,98892.55
2018-08-30T21:37:12.138Z,98902.38
2018-08-30T21:39:40.994Z,98893.39
2018-08-30T21:42:09.488Z,98885.23
2018-08-30T21:44:38.942Z,98884.03
2018-08-30T21:47:07.634Z,98893.14
2018-08-30T21:49:37.064Z,98889.09
2018-08-30T21:52:05.569Z,98891.40
2018-08-30T21:54:34.113Z,98894.43
2018-08-30T21:57:02.582Z,98899.15
2018-08-30T21:59:31.053Z,98903.86
2018-08-30T22:01:59.559Z,98907.04
2018-08-30T22:04:28.010Z,98908.91
2018-08-30T22:06:56.709Z,98903.83
2018-08-30T22:09:25.205Z,98901.45
2018-08-30T22:11:53.672Z,98906.64
2018-08-30T22:14:23.130Z,98907.15
2018-08-30T22:16:51.554Z,98913.07
2018-08-30T22:19:20.035Z,98907.55
2018-08-30T22:21:48.522Z,98914.97
2018-08-30T22:24:16.938Z,98912.96
2018-08-30T22:26:45.356Z,98914.67
2018-08-30T22:29:13.874Z,98907.91
2018-08-30T22:31:42.321Z,98911.94
2018-08-30T22:34:10.763Z,98909.23
2018-08-30T22:36:40.330Z,98913.32
2018-08-30T22:39:09.295Z,98902.33
2018-08-30T22:41:37.830Z,98902.15
2018-08-30T22:44:06.285Z,98907.19
2018-08-30T22:46:34.762Z,98898.39
2018-08-30T22:49:03.261Z,98896.19
2018-08-30T22:51:31.705Z,98898.71
2018-08-30T22:54:00.196Z,98889.91
2018-08-30T22:56:28.673Z,98891.08
2018-08-30T22:58:57.310Z,98892.06
2018-08-30T23:01:25.731Z,98886.66
2018-08-30T23:03:54.410Z,98886.48
2018-08-30T23:06:22.933Z,98887.83
2018-08-30T23:08:51.471Z,98900.80
2018-08-30T23:11:19.991Z,98901.84
2018-08-30T23:13:48.465Z,98900.69
2018-08-30T23:16:16.912Z,98899.38
2018-08-30T23:18:45.486Z,98902.80
2018-08-30T23:21:13.932Z,98906.86
2018-08-30T23:23:42.378Z,98897.37
2018-08-30T23:26:10.875Z,98894.15
2018-08-30T23:28:39.936Z,98894.11
2018-08-30T23:31:08.457Z,98889.55
2018-08-30T23:33:36.926Z,98892.94
2018-08-30T23:36:05.982Z,98897.98
2018-08-30T23:38:34.390Z,98904.41
2018-08-30T23:41:02.893Z,98906.49
2018-08-30T23:43:31.362Z,98906.64
2018-08-30T23:45:59.781Z,98912.88
2018-08-30T23:48:28.202Z,98915.91
2018-08-30T23:50:56.809Z,98920.33
2018-08-30T23:53:25.670Z,98914.89
2018-08-30T23:55:54.229Z,98908.28
2018-08-30T23:58:34.098Z,98907.11
